Anthony, New Mexico
Current Conditions -  °F | °C
As of 11:58 AM on Friday 28 Nov 2014 (Local Time) from KBIF Reporting Station
Clear Clear  
Wind Chill: 60°   Ceiling: Unl
Heat Index: 60°   Visibility: 8mi
Dew Point: 19°   Wind: 5mph
Humidity: 20%   Direction: 150°SSE
Pressure: 30.2"   Gusts: NA
Location:  32°N, 106.6°W
Report Text: KBIF 281858Z AUTO 15004KT 8SM CLR 16/M07 A3020 RMK AO2 SLP202 T01561072 $
Loading
Personal Weather Stations






























Interactive Weather Map New forecast layout! Learn more

10-Day Weather Forecast

Advertisements
Track Severe Weather on mobile